createdAt,value
2018-07-06T00:00:31.254Z,5.90
2018-07-06T00:01:31.914Z,6.40
2018-07-06T00:02:31.725Z,5.70
2018-07-06T00:03:31.067Z,5.90
2018-07-06T00:04:31.619Z,6.30
2018-07-06T00:05:30.960Z,5.90
2018-07-06T00:06:31.786Z,6.30
2018-07-06T00:07:31.244Z,6.80
2018-07-06T00:08:53.042Z,5.90
2018-07-06T00:09:53.329Z,6.20
2018-07-06T00:11:14.184Z,6.20
2018-07-06T00:12:14.584Z,6.20
2018-07-06T00:13:14.854Z,6.00
2018-07-06T00:14:14.282Z,5.80
2018-07-06T00:15:14.811Z,6.10
2018-07-06T00:16:15.269Z,6.10
2018-07-06T00:17:14.585Z,6.50
2018-07-06T00:18:14.938Z,6.30
2018-07-06T00:19:14.421Z,7.10
2018-07-06T00:20:14.843Z,6.30
2018-07-06T00:21:14.475Z,6.80
2018-07-06T00:22:15.037Z,6.70
2018-07-06T00:23:14.621Z,7.40
2018-07-06T00:24:14.951Z,7.10
2018-07-06T00:25:14.431Z,6.90
2018-07-06T00:26:14.940Z,7.60
2018-07-06T00:27:14.712Z,7.80
2018-07-06T00:28:35.419Z,7.70
2018-07-06T00:30:18.281Z,8.00
2018-07-06T00:31:18.643Z,8.70
2018-07-06T00:32:19.173Z,7.80
2018-07-06T00:33:18.536Z,7.90
2018-07-06T00:34:40.274Z,8.60
2018-07-06T00:36:02.049Z,8.80
2018-07-06T00:37:02.459Z,8.90
2018-07-06T00:38:02.099Z,8.60
2018-07-06T00:39:23.542Z,9.80
2018-07-06T00:40:23.901Z,8.90
2018-07-06T00:41:24.274Z,8.90
2018-07-06T00:42:23.801Z,9.50
2018-07-06T00:43:24.467Z,9.10
2018-07-06T00:44:24.106Z,9.30
2018-07-06T00:45:23.550Z,8.80
2018-07-06T00:46:23.888Z,8.90
2018-07-06T00:47:24.450Z,8.00
2018-07-06T00:48:23.773Z,8.00
2018-07-06T00:49:24.310Z,8.30
2018-07-06T00:50:23.785Z,7.80
2018-07-06T00:51:24.013Z,7.70
2018-07-06T00:52:24.379Z,8.80
2018-07-06T00:53:23.739Z,7.60
2018-07-06T00:54:24.085Z,6.90
2018-07-06T00:55:23.565Z,7.30
2018-07-06T00:56:23.927Z,7.30
2018-07-06T00:57:24.308Z,6.50
2018-07-06T00:58:24.312Z,7.80
2018-07-06T00:59:23.973Z,6.90
2018-07-06T01:00:26.007Z,7.10
2018-07-06T01:01:24.433Z,7.20
2018-07-06T01:02:23.666Z,6.70
2018-07-06T01:03:24.233Z,7.20
2018-07-06T01:04:23.657Z,6.70
2018-07-06T01:05:24.044Z,6.80
2018-07-06T01:06:23.506Z,6.80
2018-07-06T01:07:23.845Z,7.60
2018-07-06T01:08:24.341Z,7.60
2018-07-06T01:09:23.559Z,7.50
2018-07-06T01:10:45.090Z,7.00
2018-07-06T01:11:45.749Z,7.30
2018-07-06T01:12:45.076Z,7.70
2018-07-06T01:13:45.748Z,8.00
2018-07-06T01:14:45.122Z,7.30
2018-07-06T01:15:45.456Z,7.40
2018-07-06T01:16:45.988Z,7.20
2018-07-06T01:17:45.523Z,7.60
2018-07-06T01:18:45.941Z,7.60
2018-07-06T01:19:45.714Z,7.10
2018-07-06T01:20:45.217Z,7.20
2018-07-06T01:22:06.701Z,7.60
2018-07-06T01:23:07.003Z,8.30
2018-07-06T01:24:07.390Z,8.50
2018-07-06T01:25:06.854Z,8.40
2018-07-06T01:26:07.363Z,9.00
2018-07-06T01:27:07.652Z,8.60
2018-07-06T01:28:07.147Z,9.40
2018-07-06T01:29:07.825Z,8.90
2018-07-06T01:30:07.395Z,8.70
2018-07-06T01:31:06.945Z,7.80
2018-07-06T01:32:08.377Z,8.00
2018-07-06T01:33:06.700Z,7.80
2018-07-06T01:34:06.959Z,7.80
2018-07-06T01:35:07.499Z,7.90
2018-07-06T01:36:06.709Z,8.00
2018-07-06T01:37:07.247Z,8.00
2018-07-06T01:38:06.883Z,8.20
2018-07-06T01:39:07.338Z,8.50
2018-07-06T01:40:06.984Z,9.00
2018-07-06T01:41:07.253Z,8.30
2018-07-06T01:42:07.888Z,9.30
2018-07-06T01:43:07.469Z,9.50
2018-07-06T01:44:07.070Z,10.20
2018-07-06T01:45:07.650Z,10.60
2018-07-06T01:46:07.020Z,10.50
2018-07-06T01:47:07.706Z,9.90
2018-07-06T01:48:07.263Z,9.80
2018-07-06T01:49:07.822Z,10.10
2018-07-06T01:50:07.368Z,11.00
2018-07-06T01:51:07.220Z,11.40
2018-07-06T01:52:07.541Z,10.70
2018-07-06T01:53:07.305Z,11.90
2018-07-06T01:54:07.714Z,11.40
2018-07-06T01:55:07.235Z,12.30
2018-07-06T01:56:07.591Z,11.10
2018-07-06T01:57:07.032Z,11.50
2018-07-06T01:58:07.507Z,11.00
2018-07-06T01:59:07.075Z,11.20
2018-07-06T02:00:07.657Z,12.20
2018-07-06T02:01:06.930Z,10.80
2018-07-06T02:02:07.497Z,11.80
2018-07-06T02:03:07.114Z,11.90
2018-07-06T02:04:07.542Z,11.60
2018-07-06T02:05:28.450Z,11.20
2018-07-06T02:06:29.174Z,10.90
2018-07-06T02:07:50.167Z,11.00
2018-07-06T02:08:50.683Z,10.90
2018-07-06T02:09:50.021Z,11.30
2018-07-06T02:10:50.515Z,11.90
2018-07-06T02:11:50.977Z,11.50
2018-07-06T02:12:50.507Z,10.90
2018-07-06T02:13:50.128Z,10.60
2018-07-06T02:14:50.552Z,11.20
2018-07-06T02:15:51.075Z,10.30
2018-07-06T02:16:50.519Z,10.30
2018-07-06T02:17:50.050Z,10.00
2018-07-06T02:18:50.325Z,10.60
2018-07-06T02:19:50.755Z,10.00
2018-07-06T02:20:50.241Z,10.20
2018-07-06T02:21:50.722Z,9.90
2018-07-06T02:22:50.249Z,9.90
2018-07-06T02:23:50.697Z,9.30
2018-07-06T02:24:50.523Z,10.10
2018-07-06T02:25:51.089Z,10.40
2018-07-06T02:27:11.548Z,9.80
2018-07-06T02:28:11.991Z,10.30
2018-07-06T02:29:13.053Z,10.00
2018-07-06T02:30:12.515Z,9.20
2018-07-06T02:31:12.012Z,9.70
2018-07-06T02:32:12.505Z,9.70
2018-07-06T02:33:12.228Z,9.00
2018-07-06T02:34:11.781Z,10.20
2018-07-06T02:35:12.082Z,9.00
2018-07-06T02:36:33.536Z,9.30
2018-07-06T02:37:34.200Z,9.10
2018-07-06T02:38:33.691Z,8.90
2018-07-06T02:39:55.023Z,9.00
2018-07-06T02:40:55.274Z,8.60
2018-07-06T02:41:54.801Z,8.50
2018-07-06T02:42:55.300Z,8.10
2018-07-06T02:44:02.448Z,8.10
2018-07-06T02:44:54.858Z,8.60
2018-07-06T02:45:55.380Z,8.20
2018-07-06T02:46:55.771Z,8.50
2018-07-06T02:47:55.285Z,8.50
2018-07-06T02:48:55.920Z,8.80
2018-07-06T02:49:55.319Z,8.80
2018-07-06T02:50:54.826Z,8.50
2018-07-06T02:51:55.288Z,8.20
2018-07-06T02:53:28.054Z,8.30
2018-07-06T02:54:27.534Z,8.70
2018-07-06T02:55:28.097Z,8.50
2018-07-06T02:56:27.679Z,8.60
2018-07-06T02:57:28.057Z,8.90
2018-07-06T02:58:27.533Z,8.80
2018-07-06T02:59:28.052Z,9.80
2018-07-06T03:00:27.628Z,8.40
2018-07-06T03:01:48.537Z,8.30
2018-07-06T03:02:49.162Z,9.20
2018-07-06T03:03:49.716Z,9.10
2018-07-06T03:04:49.444Z,8.80
2018-07-06T03:05:48.940Z,8.30
2018-07-06T03:06:49.335Z,8.00
2018-07-06T03:07:48.801Z,7.20
2018-07-06T03:08:49.711Z,7.80
2018-07-06T03:09:49.734Z,8.40
2018-07-06T03:10:49.504Z,8.90
2018-07-06T03:11:49.866Z,8.70
2018-07-06T03:12:49.417Z,8.00
2018-07-06T03:13:48.882Z,8.50
2018-07-06T03:14:49.696Z,8.00
2018-07-06T03:15:49.377Z,8.60
2018-07-06T03:16:48.947Z,7.30
2018-07-06T03:18:32.093Z,7.30
2018-07-06T03:19:53.703Z,6.90
2018-07-06T03:20:54.276Z,7.10
2018-07-06T03:21:54.885Z,8.40
2018-07-06T03:22:54.201Z,7.90
2018-07-06T03:23:54.906Z,8.40
2018-07-06T03:24:54.504Z,8.30
2018-07-06T03:25:54.156Z,7.90
2018-07-06T03:26:54.717Z,7.60
2018-07-06T03:28:15.768Z,8.20
2018-07-06T03:29:16.310Z,6.90
2018-07-06T03:30:36.950Z,7.60
2018-07-06T03:31:37.347Z,6.70
2018-07-06T03:32:59.393Z,7.50
2018-07-06T03:33:59.870Z,7.90
2018-07-06T03:35:20.509Z,7.80
2018-07-06T03:36:21.011Z,7.40
2018-07-06T03:37:21.387Z,7.10
2018-07-06T03:38:20.674Z,7.10
2018-07-06T03:39:21.202Z,7.30
2018-07-06T03:40:20.769Z,6.90
2018-07-06T03:41:21.412Z,7.00
2018-07-06T03:42:20.914Z,7.00
2018-07-06T03:43:20.434Z,6.60
2018-07-06T03:44:20.793Z,7.00
2018-07-06T03:45:21.568Z,6.50
2018-07-06T03:46:42.385Z,6.20
2018-07-06T03:47:43.010Z,6.70
2018-07-06T03:48:42.709Z,5.90
2018-07-06T03:49:42.943Z,6.50
2018-07-06T03:50:42.479Z,6.60
2018-07-06T03:51:43.096Z,5.70
2018-07-06T03:52:42.831Z,6.10
2018-07-06T03:53:42.342Z,7.10
2018-07-06T03:54:43.013Z,7.20
2018-07-06T03:55:42.734Z,6.50
2018-07-06T03:56:42.611Z,6.60
2018-07-06T03:57:43.411Z,6.00
2018-07-06T03:58:43.246Z,6.10
2018-07-06T03:59:42.910Z,7.00
2018-07-06T04:00:42.359Z,5.80
2018-07-06T04:01:42.778Z,6.10
2018-07-06T04:02:42.282Z,6.20
2018-07-06T04:03:42.574Z,6.70
2018-07-06T04:04:42.108Z,7.40
2018-07-06T04:05:42.944Z,6.10
2018-07-06T04:06:42.366Z,7.60
2018-07-06T04:07:42.808Z,6.60
2018-07-06T04:08:42.226Z,6.40
2018-07-06T04:09:43.002Z,6.40
2018-07-06T04:10:42.468Z,6.50
2018-07-06T04:11:43.067Z,6.50
2018-07-06T04:12:42.744Z,7.20
2018-07-06T04:13:42.537Z,6.90
2018-07-06T04:14:42.878Z,6.90
2018-07-06T04:16:03.691Z,7.10
2018-07-06T04:17:04.060Z,7.80
2018-07-06T04:18:25.898Z,7.80
2018-07-06T04:19:26.250Z,8.20
2018-07-06T04:20:26.594Z,7.90
2018-07-06T04:21:26.194Z,7.60
2018-07-06T04:22:26.682Z,9.70
2018-07-06T04:23:26.241Z,10.80
2018-07-06T04:24:25.986Z,9.00
2018-07-06T04:25:26.511Z,8.70
2018-07-06T04:26:26.141Z,9.00
2018-07-06T04:27:26.659Z,9.40
2018-07-06T04:28:26.426Z,9.00
2018-07-06T04:29:26.082Z,8.00
2018-07-06T04:30:26.758Z,10.50
2018-07-06T04:31:26.279Z,8.40
2018-07-06T04:32:26.753Z,10.20
2018-07-06T04:33:26.427Z,11.50
2018-07-06T04:34:26.259Z,11.10
2018-07-06T04:35:26.743Z,8.60
2018-07-06T04:36:26.200Z,8.70
2018-07-06T04:37:26.744Z,8.40
2018-07-06T04:38:26.278Z,9.10
2018-07-06T04:39:25.840Z,12.00
2018-07-06T04:40:47.800Z,9.60
2018-07-06T04:41:48.664Z,9.80
2018-07-06T04:42:48.190Z,9.10
2018-07-06T04:43:47.773Z,9.60
2018-07-06T04:44:48.107Z,9.80
2018-07-06T04:45:48.540Z,9.70
2018-07-06T04:46:48.655Z,10.00
2018-07-06T04:47:48.409Z,9.80
2018-07-06T04:49:09.508Z,10.10
2018-07-06T04:50:31.669Z,10.30
2018-07-06T04:51:32.528Z,10.10
2018-07-06T04:52:31.981Z,10.20
2018-07-06T04:53:31.516Z,10.30
2018-07-06T04:54:32.139Z,10.70
2018-07-06T04:55:31.859Z,9.80
2018-07-06T04:56:32.314Z,9.90
2018-07-06T04:57:31.934Z,10.50
2018-07-06T04:58:32.417Z,10.00
2018-07-06T04:59:31.784Z,10.20
2018-07-06T05:00:32.336Z,9.20
2018-07-06T05:01:31.895Z,9.70
2018-07-06T05:02:31.496Z,9.50
2018-07-06T05:03:32.284Z,10.00
2018-07-06T05:04:31.830Z,9.30
2018-07-06T05:05:31.476Z,9.70
2018-07-06T05:06:32.027Z,9.80
2018-07-06T05:07:31.752Z,10.10
2018-07-06T05:08:32.560Z,11.40
2018-07-06T05:09:32.308Z,10.50
2018-07-06T05:10:32.133Z,11.00
2018-07-06T05:11:31.503Z,11.80
2018-07-06T05:12:31.987Z,11.70
2018-07-06T05:13:31.636Z,10.80
2018-07-06T05:14:32.331Z,19.80
2018-07-06T05:15:32.006Z,21.90
2018-07-06T05:16:31.736Z,12.30
2018-07-06T05:17:32.442Z,13.10
2018-07-06T05:18:31.912Z,11.40
2018-07-06T05:19:31.340Z,11.20
2018-07-06T05:21:14.566Z,10.10
2018-07-06T05:22:15.281Z,11.40
2018-07-06T05:23:14.827Z,11.40
2018-07-06T05:24:37.008Z,11.60
2018-07-06T05:25:37.816Z,11.10
2018-07-06T05:26:37.604Z,10.80
2018-07-06T05:27:37.141Z,10.70
2018-07-06T05:28:37.871Z,10.10
2018-07-06T05:29:37.674Z,10.90
2018-07-06T05:30:37.354Z,12.00
2018-07-06T05:31:37.109Z,11.70
2018-07-06T05:32:37.862Z,11.40
2018-07-06T05:33:58.919Z,11.30
2018-07-06T05:34:59.678Z,11.80
2018-07-06T05:35:59.416Z,12.20
2018-07-06T05:36:59.090Z,11.20
2018-07-06T05:38:21.277Z,10.10
2018-07-06T05:39:22.133Z,10.40
2018-07-06T05:40:21.579Z,10.30
2018-07-06T05:41:21.260Z,10.70
2018-07-06T05:42:22.322Z,9.40
2018-07-06T05:43:45.733Z,10.10
2018-07-06T05:44:47.375Z,9.70
2018-07-06T05:45:46.100Z,10.10
2018-07-06T05:46:45.971Z,9.20
2018-07-06T05:47:45.830Z,9.60
2018-07-06T05:48:46.613Z,9.70
2018-07-06T05:49:46.639Z,9.10
2018-07-06T05:50:46.423Z,9.00
2018-07-06T05:52:07.262Z,9.90
2018-07-06T05:53:08.127Z,9.10
2018-07-06T05:54:29.463Z,9.40
2018-07-06T05:55:30.059Z,8.50
2018-07-06T05:56:29.761Z,8.10
2018-07-06T05:57:29.430Z,8.90
2018-07-06T05:58:30.139Z,9.10
2018-07-06T05:59:29.991Z,9.60
2018-07-06T06:00:29.630Z,9.20
2018-07-06T06:01:29.647Z,9.70
2018-07-06T06:02:30.381Z,9.20
2018-07-06T06:03:30.001Z,9.30
2018-07-06T06:04:29.717Z,9.10
2018-07-06T06:05:29.519Z,9.90
2018-07-06T06:06:29.881Z,9.40
2018-07-06T06:07:29.437Z,9.80
2018-07-06T06:08:29.911Z,8.90
2018-07-06T06:09:29.384Z,9.30
2018-07-06T06:10:30.080Z,9.30
2018-07-06T06:11:50.910Z,8.90
2018-07-06T06:12:51.937Z,9.10
2018-07-06T06:13:51.546Z,9.10
2018-07-06T06:14:51.301Z,9.40
2018-07-06T06:16:33.701Z,9.30
2018-07-06T06:18:20.614Z,8.80
2018-07-06T06:19:21.110Z,8.30
2018-07-06T06:20:42.257Z,9.20
2018-07-06T06:21:42.998Z,9.20
2018-07-06T06:22:43.110Z,9.00
2018-07-06T06:23:42.755Z,9.10
2018-07-06T06:25:25.800Z,9.50
2018-07-06T06:26:26.521Z,9.30
2018-07-06T06:27:26.601Z,8.90
2018-07-06T06:28:26.321Z,9.30
2018-07-06T06:29:25.950Z,10.30
2018-07-06T06:30:25.567Z,9.50
2018-07-06T06:31:26.125Z,10.10
2018-07-06T06:32:25.649Z,9.70
2018-07-06T06:33:26.664Z,8.80
2018-07-06T06:34:25.458Z,9.30
2018-07-06T06:35:26.250Z,10.10
2018-07-06T06:36:25.924Z,9.70
2018-07-06T06:37:25.717Z,10.50
2018-07-06T06:38:47.039Z,10.40
2018-07-06T06:39:47.833Z,10.80
2018-07-06T06:40:47.390Z,10.30
2018-07-06T06:41:47.057Z,11.70
2018-07-06T06:42:47.781Z,12.00
2018-07-06T06:43:47.206Z,10.80
2018-07-06T06:45:09.175Z,11.90
2018-07-06T06:46:31.568Z,11.70
2018-07-06T06:47:32.252Z,11.70
2018-07-06T06:49:15.574Z,11.40
2018-07-06T06:50:15.147Z,11.70
2018-07-06T06:51:36.808Z,11.40
2018-07-06T06:52:37.670Z,11.20
2018-07-06T06:53:58.583Z,11.00
2018-07-06T06:54:59.275Z,11.80
2018-07-06T06:55:58.907Z,10.70
2018-07-06T06:56:58.642Z,11.50
2018-07-06T06:57:59.328Z,11.40
2018-07-06T06:58:58.815Z,10.80
2018-07-06T06:59:58.617Z,12.10
2018-07-06T07:00:59.338Z,12.70
2018-07-06T07:01:59.053Z,12.10
2018-07-06T07:02:58.938Z,11.80
2018-07-06T07:05:02.739Z,11.40
2018-07-06T07:06:04.017Z,10.90
2018-07-06T07:07:02.879Z,11.60
2018-07-06T07:08:03.441Z,11.20
2018-07-06T07:09:03.184Z,10.80
2018-07-06T07:10:02.912Z,9.90
2018-07-06T07:11:03.403Z,9.40
2018-07-06T07:12:03.093Z,9.30
2018-07-06T07:13:03.622Z,8.50
2018-07-06T07:14:03.082Z,7.20
2018-07-06T07:15:02.971Z,7.00
2018-07-06T07:16:25.458Z,7.00
2018-07-06T07:17:26.221Z,7.30
2018-07-06T07:19:09.188Z,5.70
2018-07-06T07:20:09.960Z,5.60
2018-07-06T07:21:09.897Z,4.80
2018-07-06T07:22:31.182Z,5.30
2018-07-06T07:23:31.995Z,5.30
2018-07-06T07:24:31.494Z,5.90
2018-07-06T07:25:30.950Z,5.90
2018-07-06T07:27:14.490Z,6.20
2018-07-06T07:28:36.450Z,5.80
2018-07-06T07:29:37.160Z,5.40
2018-07-06T07:30:36.931Z,5.60
2018-07-06T07:31:36.538Z,6.10
2018-07-06T07:32:37.556Z,36.10
2018-07-06T07:33:37.462Z,14.40
2018-07-06T07:34:36.947Z,6.90
2018-07-06T07:35:36.355Z,6.00
2018-07-06T07:36:36.856Z,5.80
2018-07-06T07:37:37.343Z,6.20
2018-07-06T07:38:37.100Z,5.70
2018-07-06T07:39:36.717Z,5.80
2018-07-06T07:40:58.558Z,5.70
2018-07-06T07:41:58.963Z,6.10
2018-07-06T07:42:59.489Z,5.50
2018-07-06T07:44:20.385Z,6.30
2018-07-06T07:45:21.004Z,6.50
2018-07-06T07:46:20.669Z,6.80
2018-07-06T07:47:21.400Z,7.20
2018-07-06T07:48:42.683Z,6.90
2018-07-06T07:49:43.288Z,7.00
2018-07-06T07:50:43.289Z,10.40
2018-07-06T07:52:04.878Z,14.60
2018-07-06T07:53:05.387Z,8.40
2018-07-06T07:54:04.892Z,7.80
2018-07-06T07:55:05.561Z,7.20
2018-07-06T07:56:05.338Z,7.60
2018-07-06T07:57:05.144Z,7.30
2018-07-06T07:58:05.136Z,7.20
2018-07-06T07:59:04.611Z,7.30
2018-07-06T08:00:05.316Z,6.90
2018-07-06T08:01:05.064Z,7.20
2018-07-06T08:02:06.159Z,6.90
2018-07-06T08:03:04.673Z,6.90
2018-07-06T08:04:05.402Z,6.40
2018-07-06T08:05:04.990Z,6.40
2018-07-06T08:06:26.328Z,6.40
2018-07-06T08:07:27.337Z,6.90
2018-07-06T08:08:26.963Z,5.80
2018-07-06T08:09:47.920Z,4.50
2018-07-06T08:10:48.347Z,4.60
2018-07-06T08:11:47.999Z,4.60
2018-07-06T08:12:48.568Z,4.50
2018-07-06T08:13:48.222Z,5.10
2018-07-06T08:14:49.032Z,5.00
2018-07-06T08:15:48.826Z,5.30
2018-07-06T08:17:09.734Z,5.10
2018-07-06T08:18:31.540Z,5.70
2018-07-06T08:19:32.051Z,5.00
2018-07-06T08:20:31.741Z,4.60
2018-07-06T08:21:31.678Z,4.90
2018-07-06T08:22:32.596Z,4.50
2018-07-06T08:23:53.961Z,4.80
2018-07-06T08:25:16.498Z,4.40
2018-07-06T08:26:17.425Z,4.20
2018-07-06T08:27:17.742Z,3.80
2018-07-06T08:28:38.813Z,3.80
2018-07-06T08:29:38.679Z,4.00
2018-07-06T08:30:38.612Z,3.80
2018-07-06T08:31:38.448Z,3.50
2018-07-06T08:32:38.293Z,3.70
2018-07-06T08:33:38.938Z,3.00
2018-07-06T08:34:38.583Z,3.10
2018-07-06T08:35:38.210Z,2.90
2018-07-06T08:37:00.515Z,3.30
2018-07-06T08:38:00.167Z,3.40
2018-07-06T08:39:00.951Z,3.30
2018-07-06T08:40:00.803Z,3.40
2018-07-06T08:41:00.632Z,3.70
2018-07-06T08:42:21.276Z,3.80
2018-07-06T08:43:22.062Z,3.80
2018-07-06T08:44:43.084Z,3.40
2018-07-06T08:45:43.939Z,3.40
2018-07-06T08:46:43.671Z,3.60
2018-07-06T08:47:43.441Z,3.50
2018-07-06T08:49:48.675Z,3.40
2018-07-06T08:50:49.316Z,3.70
2018-07-06T08:51:49.079Z,3.80
2018-07-06T08:52:49.777Z,3.60
2018-07-06T08:53:49.337Z,3.80
2018-07-06T08:54:49.056Z,3.60
2018-07-06T08:55:48.836Z,3.80
2018-07-06T08:56:49.419Z,4.00
2018-07-06T08:57:49.084Z,4.40
2018-07-06T08:58:48.576Z,4.20
2018-07-06T08:59:49.345Z,4.60
2018-07-06T09:00:49.307Z,3.90
2018-07-06T09:01:49.096Z,4.30
2018-07-06T09:02:49.987Z,3.30
2018-07-06T09:03:49.739Z,3.80
2018-07-06T09:04:49.798Z,3.40
2018-07-06T09:05:49.449Z,3.40
2018-07-06T09:06:49.690Z,3.60
2018-07-06T09:07:49.213Z,3.80
2018-07-06T09:08:49.236Z,3.70
2018-07-06T09:10:12.405Z,3.60
2018-07-06T09:11:35.396Z,3.50
2018-07-06T09:12:35.920Z,3.80
2018-07-06T09:13:57.902Z,3.70
2018-07-06T09:14:57.423Z,3.60
2018-07-06T09:15:57.872Z,3.60
2018-07-06T09:17:00.050Z,3.50
2018-07-06T09:17:58.044Z,3.80
2018-07-06T09:18:58.040Z,3.80
2018-07-06T09:19:57.992Z,3.40
2018-07-06T09:20:57.866Z,4.00
2018-07-06T09:21:57.716Z,3.70
2018-07-06T09:22:57.603Z,3.80
2018-07-06T09:23:58.007Z,3.60
2018-07-06T09:24:57.692Z,3.80
2018-07-06T09:25:57.708Z,3.30
2018-07-06T09:26:58.376Z,3.70
2018-07-06T09:27:58.044Z,13.90
2018-07-06T09:28:57.936Z,5.30
2018-07-06T09:29:58.980Z,3.30
2018-07-06T09:30:57.985Z,3.10
2018-07-06T09:31:57.349Z,3.20
2018-07-06T09:32:58.067Z,3.30
2018-07-06T09:33:57.908Z,3.60
2018-07-06T09:34:57.876Z,3.30
2018-07-06T09:36:19.081Z,3.10
2018-07-06T09:37:20.077Z,3.20
2018-07-06T09:38:20.801Z,2.90
2018-07-06T09:39:19.538Z,3.20
2018-07-06T09:40:20.649Z,3.50
2018-07-06T09:41:40.820Z,3.10
2018-07-06T09:42:41.466Z,3.70
2018-07-06T09:43:40.827Z,3.60
2018-07-06T09:44:41.490Z,3.20
2018-07-06T09:46:02.149Z,3.40
2018-07-06T09:47:02.639Z,2.50
2018-07-06T09:48:02.479Z,3.10
2018-07-06T09:49:03.672Z,3.10
2018-07-06T09:50:02.530Z,3.60
2018-07-06T09:51:02.243Z,3.20
2018-07-06T09:52:02.987Z,3.30
2018-07-06T09:53:02.758Z,3.30
2018-07-06T09:54:02.426Z,3.10
2018-07-06T09:55:02.453Z,3.40
2018-07-06T09:56:02.123Z,3.10
2018-07-06T09:57:02.810Z,3.30
2018-07-06T09:58:45.143Z,3.50
2018-07-06T09:59:45.886Z,3.30
2018-07-06T10:00:45.477Z,3.10
2018-07-06T10:02:07.449Z,3.00
2018-07-06T10:03:08.755Z,3.20
2018-07-06T10:04:07.412Z,2.80
2018-07-06T10:05:08.146Z,3.10
2018-07-06T10:06:07.600Z,3.10
2018-07-06T10:07:08.426Z,3.00
2018-07-06T10:08:08.252Z,2.90
2018-07-06T10:09:08.026Z,3.30
2018-07-06T10:10:08.831Z,3.10
2018-07-06T10:11:07.845Z,3.50
2018-07-06T10:12:07.559Z,3.30
2018-07-06T10:13:08.040Z,3.60
2018-07-06T10:14:09.170Z,3.40
2018-07-06T10:15:08.157Z,3.20
2018-07-06T10:16:08.984Z,3.40
2018-07-06T10:17:08.046Z,3.50
2018-07-06T10:19:18.323Z,2.80
2018-07-06T10:20:19.313Z,3.00
2018-07-06T10:21:43.439Z,3.50
2018-07-06T10:22:41.596Z,3.70
2018-07-06T10:24:01.879Z,3.10
2018-07-06T10:24:41.236Z,3.60
2018-07-06T10:25:41.212Z,3.00
2018-07-06T10:26:45.794Z,3.80
2018-07-06T10:27:42.896Z,2.90
2018-07-06T10:28:41.913Z,4.00
2018-07-06T10:29:40.981Z,3.30
2018-07-06T10:31:02.393Z,2.50
2018-07-06T10:32:02.870Z,2.80
2018-07-06T10:33:02.512Z,2.70
2018-07-06T10:34:02.438Z,2.80
2018-07-06T10:35:02.339Z,2.50
2018-07-06T10:36:26.128Z,2.70
2018-07-06T10:37:26.766Z,2.80
2018-07-06T10:38:26.856Z,2.70
2018-07-06T10:39:26.694Z,3.50
2018-07-06T10:40:26.530Z,3.70
2018-07-06T10:41:27.380Z,3.10
2018-07-06T10:42:27.202Z,3.50
2018-07-06T10:43:26.892Z,4.60
2018-07-06T10:44:48.166Z,3.50
2018-07-06T10:45:48.789Z,3.30
2018-07-06T10:46:48.761Z,3.40
2018-07-06T10:47:48.527Z,3.80
2018-07-06T10:48:49.098Z,3.40
2018-07-06T10:49:49.026Z,3.80
2018-07-06T10:50:48.719Z,3.30
2018-07-06T10:51:48.691Z,3.20
2018-07-06T10:52:49.175Z,3.00
2018-07-06T10:53:49.105Z,3.30
2018-07-06T10:54:48.876Z,3.30
2018-07-06T10:55:48.421Z,3.40
2018-07-06T10:56:48.928Z,4.20
2018-07-06T10:57:49.792Z,3.60
2018-07-06T10:58:48.536Z,3.40
2018-07-06T10:59:48.024Z,3.50
2018-07-06T11:00:48.589Z,3.00
2018-07-06T11:02:09.844Z,3.30
2018-07-06T11:03:32.880Z,3.10
2018-07-06T11:04:33.593Z,2.70
2018-07-06T11:05:34.119Z,2.80
2018-07-06T11:06:33.851Z,3.00
2018-07-06T11:07:33.656Z,2.70
2018-07-06T11:08:34.029Z,3.00
2018-07-06T11:09:55.178Z,3.70
2018-07-06T11:10:55.794Z,3.40
2018-07-06T11:11:55.780Z,3.80
2018-07-06T11:12:55.567Z,3.80
2018-07-06T11:13:55.492Z,3.50
2018-07-06T11:14:56.132Z,3.70
2018-07-06T11:15:57.375Z,4.20
2018-07-06T11:16:54.979Z,3.60
2018-07-06T11:17:55.975Z,2.90
2018-07-06T11:18:56.500Z,4.00
2018-07-06T11:19:55.164Z,3.50
2018-07-06T11:20:55.734Z,3.60
2018-07-06T11:21:56.531Z,3.50
2018-07-06T11:23:16.875Z,2.90
2018-07-06T11:24:19.278Z,3.10
2018-07-06T11:25:17.641Z,2.80
2018-07-06T11:26:17.338Z,3.00
2018-07-06T11:27:17.239Z,2.80
2018-07-06T11:28:17.038Z,3.00
2018-07-06T11:29:17.576Z,3.20
2018-07-06T11:30:17.476Z,2.90
2018-07-06T11:31:17.044Z,3.20
2018-07-06T11:32:16.971Z,3.20
2018-07-06T11:33:18.034Z,3.20
2018-07-06T11:34:17.606Z,2.90
2018-07-06T11:35:17.169Z,2.70
2018-07-06T11:37:01.829Z,2.40
2018-07-06T11:38:02.718Z,2.50
2018-07-06T11:39:01.816Z,2.90
2018-07-06T11:40:00.539Z,2.40
2018-07-06T11:41:01.212Z,2.30
2018-07-06T11:42:00.681Z,2.80
2018-07-06T11:43:01.494Z,2.60
2018-07-06T11:45:09.088Z,2.50
2018-07-06T11:46:08.908Z,2.40
2018-07-06T11:47:09.862Z,2.10
2018-07-06T11:48:09.376Z,2.40
2018-07-06T11:49:09.006Z,2.70
2018-07-06T11:50:32.230Z,2.30
2018-07-06T11:51:56.048Z,2.30
2018-07-06T11:52:55.642Z,20.10
2018-07-06T11:53:54.753Z,3.40
2018-07-06T11:54:55.884Z,2.80
2018-07-06T11:56:38.858Z,2.40
2018-07-06T11:57:40.341Z,2.20
2018-07-06T11:58:39.118Z,2.20
2018-07-06T11:59:38.878Z,2.20
2018-07-06T12:00:39.520Z,2.20
2018-07-06T12:01:39.104Z,2.20
2018-07-06T12:02:42.363Z,2.40
2018-07-06T12:03:38.896Z,2.50
2018-07-06T12:04:39.524Z,2.30
2018-07-06T12:05:39.789Z,2.50
2018-07-06T12:07:01.551Z,2.60
2018-07-06T12:08:01.151Z,2.50
2018-07-06T12:09:01.732Z,2.40
2018-07-06T12:10:01.400Z,2.50
2018-07-06T12:11:01.461Z,2.50
2018-07-06T12:12:01.169Z,2.60
2018-07-06T12:13:02.100Z,2.60
2018-07-06T12:14:01.924Z,2.50
2018-07-06T12:15:01.381Z,2.80
2018-07-06T12:16:02.031Z,2.60
2018-07-06T12:17:01.751Z,2.50
2018-07-06T12:18:01.777Z,2.20
2018-07-06T12:19:02.431Z,2.40
2018-07-06T12:20:01.263Z,2.30
2018-07-06T12:21:01.887Z,2.00
2018-07-06T12:22:02.051Z,2.20
2018-07-06T12:23:01.909Z,2.10
2018-07-06T12:24:01.636Z,2.40
2018-07-06T12:25:01.673Z,2.60
2018-07-06T12:26:01.681Z,2.40
2018-07-06T12:27:01.461Z,2.20
2018-07-06T12:28:01.257Z,2.40
2018-07-06T12:29:02.651Z,2.40
2018-07-06T12:30:01.409Z,2.80
2018-07-06T12:31:02.177Z,2.10
2018-07-06T12:32:01.954Z,2.00
2018-07-06T12:33:01.737Z,2.50
2018-07-06T12:34:01.450Z,2.10
2018-07-06T12:35:01.761Z,2.10
2018-07-06T12:36:02.876Z,2.20
2018-07-06T12:37:03.164Z,2.40
2018-07-06T12:38:01.933Z,1.90
2018-07-06T12:39:02.903Z,2.30
2018-07-06T12:40:02.816Z,2.10
2018-07-06T12:41:01.846Z,2.30
2018-07-06T12:42:01.776Z,2.10
2018-07-06T12:43:09.566Z,1.80
2018-07-06T12:44:06.382Z,2.30
2018-07-06T12:45:04.862Z,2.20
2018-07-06T12:46:02.003Z,2.90
2018-07-06T12:47:01.383Z,3.20
2018-07-06T12:48:01.141Z,2.50
2018-07-06T12:49:02.997Z,1.90
2018-07-06T12:50:01.631Z,2.00
2018-07-06T12:51:01.742Z,2.50
2018-07-06T12:52:02.155Z,2.40
2018-07-06T12:53:02.129Z,2.40
2018-07-06T12:54:02.135Z,2.40
2018-07-06T12:55:00.982Z,0.00
2018-07-06T12:56:02.167Z,2.20
2018-07-06T12:57:02.497Z,2.10
2018-07-06T12:58:01.636Z,2.40
2018-07-06T12:59:01.517Z,2.30
2018-07-06T13:00:01.419Z,2.40
2018-07-06T13:01:02.149Z,2.30
2018-07-06T13:02:02.614Z,24.00
2018-07-06T13:03:01.242Z,6.90
2018-07-06T13:04:01.357Z,3.40
2018-07-06T13:05:04.715Z,4.50
2018-07-06T13:06:01.519Z,11.70
2018-07-06T13:07:01.689Z,8.30
2018-07-06T13:08:01.688Z,4.30
2018-07-06T13:09:02.933Z,4.10
2018-07-06T13:10:01.958Z,4.70
2018-07-06T13:11:24.319Z,5.40
2018-07-06T13:12:24.018Z,7.70
2018-07-06T13:13:24.955Z,6.60
2018-07-06T13:14:23.848Z,3.50
2018-07-06T13:15:23.728Z,3.10
2018-07-06T13:16:28.407Z,2.60
2018-07-06T13:17:24.145Z,3.20
2018-07-06T13:18:45.871Z,2.20
2018-07-06T13:19:45.861Z,2.00
2018-07-06T13:20:46.426Z,2.20
2018-07-06T13:21:46.277Z,1.90
2018-07-06T13:23:29.727Z,2.10
2018-07-06T13:24:30.055Z,2.00
2018-07-06T13:25:29.900Z,2.10
2018-07-06T13:26:29.912Z,1.80
2018-07-06T13:27:30.300Z,2.20
2018-07-06T13:28:30.183Z,5.50
2018-07-06T13:29:30.021Z,6.30
2018-07-06T13:30:29.900Z,5.20
2018-07-06T13:31:53.254Z,6.20
2018-07-06T13:32:53.293Z,5.90
2018-07-06T13:33:53.279Z,5.30
2018-07-06T13:35:15.084Z,6.40
2018-07-06T13:36:16.224Z,3.70
2018-07-06T13:37:16.176Z,5.00
2018-07-06T13:38:15.156Z,4.50
2018-07-06T13:39:16.327Z,6.40
2018-07-06T13:40:37.691Z,3.40
2018-07-06T13:41:38.787Z,5.10
2018-07-06T13:43:00.020Z,9.80
2018-07-06T13:44:00.608Z,6.10
2018-07-06T13:45:23.086Z,3.10
2018-07-06T13:46:45.631Z,2.10
2018-07-06T13:47:45.474Z,2.60
2018-07-06T13:48:46.207Z,1.90
2018-07-06T13:49:45.818Z,2.90
2018-07-06T13:50:45.677Z,4.40
2018-07-06T13:51:45.368Z,2.70
2018-07-06T13:52:45.964Z,3.80
2018-07-06T13:53:45.744Z,2.00
2018-07-06T13:54:45.687Z,2.10
2018-07-06T13:55:45.546Z,1.70
2018-07-06T13:56:45.366Z,2.20
2018-07-06T13:57:46.390Z,2.20
2018-07-06T13:58:46.177Z,1.80